Time;durP1;ratioP1;P1;durP2;ratioP2;P2;SDS_P1;SDS_P2;PMS_P1;PMS_P2;Temp;Humidity;BMP_temperature;BMP_pressure;BME280_temperature;BME280_humidity;BME280_pressure;Samples;Min_cycle;Max_cycle;Signal;HPM_P1;HPM_P2
2023/01/05 00:01:09;;;;;;;31.20;6.75;;;10.10;99.90;;;;;;7361121;19;21184;-58
2023/01/05 00:03:36;;;;;;;26.42;6.20;;;10.10;99.90;;;;;;7361702;19;20018;-56
2023/01/05 00:06:10;;;;;;;25.30;5.63;;;10.10;99.90;;;;;;7356482;19;20014;-59
2023/01/05 00:08:38;;;;;;;24.42;4.93;;;10.10;99.90;;;;;;7356521;19;20054;-59
2023/01/05 00:22:29;;;;;;;31.83;6.20;;;10.20;99.90;;;;;;7362651;19;20018;-56
2023/01/05 00:25:26;;;;;;;23.70;5.50;;;10.20;99.90;;;;;;7364296;19;20378;-56
2023/01/05 00:27:53;;;;;;;30.08;5.75;;;10.20;99.90;;;;;;7362026;19;20121;-56
2023/01/05 00:30:23;;;;;;;29.25;5.38;;;10.30;99.90;;;;;;7361236;19;20014;-57
2023/01/05 00:32:49;;;;;;;26.08;4.78;;;10.30;99.90;;;;;;7359907;19;20017;-56
2023/01/05 00:35:16;;;;;;;23.80;5.05;;;10.30;99.90;;;;;;7362527;19;20022;-57
2023/01/05 00:37:46;;;;;;;35.83;5.80;;;10.40;99.90;;;;;;7363345;19;20049;-57
2023/01/05 00:40:16;;;;;;;27.50;5.68;;;10.40;99.90;;;;;;7364879;19;20025;-56
2023/01/05 00:42:42;;;;;;;23.48;5.63;;;10.40;99.90;;;;;;7355679;19;20484;-57
2023/01/05 00:45:12;;;;;;;28.02;5.45;;;10.50;99.90;;;;;;7363499;19;20080;-56
2023/01/05 00:47:39;;;;;;;27.25;5.85;;;10.40;99.90;;;;;;7364350;19;20715;-56
2023/01/05 00:50:08;;;;;;;26.20;5.28;;;10.40;99.90;;;;;;7361657;19;20043;-57
2023/01/05 00:52:35;;;;;;;23.45;4.88;;;10.50;99.90;;;;;;7362247;19;20025;-56
2023/01/05 00:55:01;;;;;;;20.42;4.57;;;10.50;99.90;;;;;;7368092;19;20019;-56
2023/01/05 00:57:28;;;;;;;26.45;4.65;;;10.50;99.90;;;;;;7359851;19;20010;-56
2023/01/05 00:59:55;;;;;;;28.88;5.45;;;10.50;99.90;;;;;;7364538;19;20019;-56
2023/01/05 01:02:21;;;;;;;24.00;5.40;;;10.50;99.90;;;;;;7364151;19;20014;-57
2023/01/05 01:04:49;;;;;;;19.23;4.88;;;10.50;99.90;;;;;;7361985;19;20023;-57
2023/01/05 01:07:19;;;;;;;23.55;5.75;;;10.50;99.90;;;;;;7367874;19;20588;-57
2023/01/05 01:09:46;;;;;;;26.15;5.90;;;10.50;99.90;;;;;;7364640;19;20796;-57
2023/01/05 01:12:12;;;;;;;20.88;4.63;;;10.50;99.90;;;;;;7364652;19;20496;-56
2023/01/05 01:14:39;;;;;;;30.50;5.28;;;10.40;99.90;;;;;;7360994;19;20018;-57
2023/01/05 01:17:06;;;;;;;25.98;5.95;;;10.40;99.90;;;;;;7360219;19;20089;-57
2023/01/05 01:19:32;;;;;;;27.17;4.97;;;10.40;99.90;;;;;;7363686;19;20615;-56
2023/01/05 01:22:00;;;;;;;24.45;6.07;;;10.40;99.90;;;;;;7363239;19;20015;-56
2023/01/05 01:24:27;;;;;;;28.65;5.60;;;10.40;99.90;;;;;;7360871;19;20371;-57
2023/01/05 01:26:54;;;;;;;21.70;4.35;;;10.40;99.90;;;;;;7361698;19;20043;-57
2023/01/05 01:29:23;;;;;;;24.25;5.15;;;10.40;99.90;;;;;;7365391;19;20018;-56
2023/01/05 01:31:51;;;;;;;26.70;5.53;;;10.40;99.90;;;;;;7365305;19;20398;-56
2023/01/05 01:34:19;;;;;;;27.35;5.13;;;10.40;99.90;;;;;;7367385;19;20049;-57
2023/01/05 01:36:45;;;;;;;27.50;5.70;;;10.40;99.90;;;;;;7362902;19;20402;-57
2023/01/05 01:39:13;;;;;;;24.17;5.22;;;10.40;99.90;;;;;;7364990;19;20021;-56
2023/01/05 01:41:43;;;;;;;25.90;5.30;;;10.30;99.90;;;;;;7360668;19;20081;-57
2023/01/05 01:44:52;;;;;;;23.70;5.90;;;10.30;99.90;;;;;;7363302;19;20022;-57
2023/01/05 01:47:31;;;;;;;23.85;4.70;;;10.30;99.90;;;;;;7362694;19;20019;-56
2023/01/05 01:50:02;;;;;;;23.95;4.88;;;10.30;99.90;;;;;;7365235;19;20024;-57
2023/01/05 01:52:40;;;;;;;25.38;5.60;;;10.30;99.90;;;;;;7363646;19;20006;-57
2023/01/05 01:55:11;;;;;;;25.73;6.07;;;10.30;99.90;;;;;;7362207;19;20102;-57
2023/01/05 01:57:38;;;;;;;20.77;4.60;;;10.30;99.90;;;;;;7358896;19;20489;-57
2023/01/05 02:00:08;;;;;;;23.75;4.93;;;10.40;99.90;;;;;;7362171;19;20889;-56
2023/01/05 02:02:47;;;;;;;26.63;4.90;;;10.30;99.90;;;;;;7363209;19;20557;-57
2023/01/05 02:05:20;;;;;;;22.75;5.03;;;10.30;99.90;;;;;;7361703;19;20032;-57
2023/01/05 02:07:47;;;;;;;23.45;5.45;;;10.30;99.90;;;;;;7355193;19;20098;-59
2023/01/05 02:10:17;;;;;;;20.00;4.82;;;10.30;99.90;;;;;;7360949;19;20018;-57
2023/01/05 02:13:13;;;;;;;26.23;4.95;;;10.30;99.90;;;;;;7362676;19;20055;-58
2023/01/05 02:15:55;;;;;;;22.00;5.30;;;10.30;99.90;;;;;;7358279;19;20086;-57
2023/01/05 02:18:46;;;;;;;25.30;6.07;;;10.30;99.90;;;;;;7363436;19;20513;-58
2023/01/05 02:21:37;;;;;;;22.27;5.75;;;10.30;99.90;;;;;;7353687;19;20129;-59
2023/01/05 02:24:18;;;;;;;21.85;5.05;;;10.30;99.90;;;;;;7356576;19;20561;-59
2023/01/05 02:27:03;;;;;;;26.65;5.05;;;10.30;99.90;;;;;;7359051;19;20595;-59
2023/01/05 02:29:43;;;;;;;25.13;5.38;;;10.30;99.90;;;;;;7353160;19;20121;-59
2023/01/05 02:32:19;;;;;;;18.10;4.15;;;10.30;99.90;;;;;;7354059;19;20026;-59
2023/01/05 02:35:22;;;;;;;21.63;4.28;;;10.30;99.90;;;;;;7355372;19;20023;-59
2023/01/05 02:38:11;;;;;;;18.83;4.80;;;10.30;99.90;;;;;;7353220;19;20493;-59
2023/01/05 02:40:44;;;;;;;23.75;5.13;;;10.30;99.90;;;;;;7353539;19;20018;-59
2023/01/05 02:43:14;;;;;;;22.02;4.80;;;10.30;99.90;;;;;;7354870;19;20485;-59
2023/01/05 02:45:40;;;;;;;25.80;4.82;;;10.30;99.90;;;;;;7352695;19;20044;-59
2023/01/05 02:48:07;;;;;;;27.48;5.53;;;10.30;99.90;;;;;;7354898;19;20793;-59
2023/01/05 02:51:02;;;;;;;29.10;5.30;;;10.30;99.90;;;;;;7354169;19;20573;-59
2023/01/05 02:54:08;;;;;;;22.00;4.30;;;10.30;99.90;;;;;;7356969;19;20098;-59
2023/01/05 02:56:43;;;;;;;35.35;5.13;;;10.20;99.90;;;;;;7353761;19;20091;-58
2023/01/05 02:59:22;;;;;;;20.63;4.55;;;10.10;99.90;;;;;;7355076;19;20018;-59
2023/01/05 03:01:55;;;;;;;25.75;4.88;;;10.00;99.90;;;;;;7355726;19;20041;-59
2023/01/05 03:04:26;;;;;;;23.73;5.10;;;10.10;99.90;;;;;;7358093;19;20022;-59
2023/01/05 03:07:00;;;;;;;30.58;5.57;;;10.00;99.90;;;;;;7351901;19;20018;-59
2023/01/05 03:09:35;;;;;;;27.55;5.15;;;10.00;99.90;;;;;;7352157;19;20022;-59
2023/01/05 03:15:29;;;;;;;30.45;5.43;;;10.00;99.90;;;;;;7368111;19;20018;-59
2023/01/05 03:18:08;;;;;;;25.88;5.22;;;10.00;99.90;;;;;;7367601;19;20007;-59
2023/01/05 03:20:42;;;;;;;30.85;6.07;;;10.00;99.90;;;;;;7370587;19;20023;-59
2023/01/05 03:37:45;;;;;;;26.35;6.18;;;10.00;99.90;;;;;;7367735;19;20455;-59
2023/01/05 03:40:26;;;;;;;27.05;4.93;;;10.00;99.90;;;;;;7369388;19;20014;-59
2023/01/05 03:42:54;;;;;;;27.95;6.03;;;10.00;99.90;;;;;;7371776;19;20493;-59
2023/01/05 03:45:23;;;;;;;24.10;4.93;;;10.10;99.90;;;;;;7369358;19;20018;-59
2023/01/05 03:47:50;;;;;;;29.92;5.45;;;10.10;99.90;;;;;;7375191;19;20014;-59
2023/01/05 03:50:22;;;;;;;34.28;6.22;;;10.10;99.90;;;;;;7377217;19;20019;-59
2023/01/05 03:52:49;;;;;;;26.90;4.55;;;10.10;99.90;;;;;;7375125;19;20039;-59
2023/01/05 03:55:16;;;;;;;29.05;5.68;;;10.10;99.90;;;;;;7372509;19;20106;-59
2023/01/05 03:57:43;;;;;;;31.33;6.10;;;10.10;99.90;;;;;;7373981;19;20014;-58
2023/01/05 04:00:17;;;;;;;29.92;6.13;;;10.10;99.90;;;;;;7371519;19;20022;-59
2023/01/05 04:02:54;;;;;;;28.65;5.93;;;10.10;99.90;;;;;;7377514;19;20014;-59
2023/01/05 04:05:21;;;;;;;25.90;6.53;;;10.00;99.90;;;;;;7372127;19;20650;-59
2023/01/05 04:07:48;;;;;;;28.95;5.45;;;10.10;99.90;;;;;;7374325;19;20409;-59
2023/01/05 04:10:17;;;;;;;31.00;5.03;;;10.00;99.90;;;;;;7374656;19;20023;-60
2023/01/05 04:12:45;;;;;;;26.65;5.50;;;10.00;99.90;;;;;;7374236;19;20046;-59
2023/01/05 04:15:11;;;;;;;28.90;5.40;;;10.00;99.90;;;;;;7373729;19;20501;-59
2023/01/05 04:17:38;;;;;;;22.27;5.22;;;10.00;99.90;;;;;;7372327;19;20033;-59
2023/01/05 04:20:05;;;;;;;31.98;5.25;;;10.10;99.90;;;;;;7376581;19;20018;-59
2023/01/05 04:22:33;;;;;;;24.33;4.63;;;10.10;99.90;;;;;;7375668;19;20118;-59
2023/01/05 04:24:59;;;;;;;25.65;5.07;;;10.10;99.90;;;;;;7372777;19;20492;-59
2023/01/05 04:27:28;;;;;;;30.88;5.30;;;10.20;99.90;;;;;;7374962;19;20019;-59
2023/01/05 04:29:55;;;;;;;25.40;5.65;;;10.20;99.90;;;;;;7371722;19;20041;-59
2023/01/05 04:32:22;;;;;;;32.30;6.22;;;10.20;99.90;;;;;;7377898;19;20018;-59
2023/01/05 04:34:48;;;;;;;24.50;5.28;;;10.20;99.90;;;;;;7372095;19;20022;-59
2023/01/05 04:37:17;;;;;;;21.75;4.72;;;10.20;99.90;;;;;;7370433;19;20041;-59
2023/01/05 04:39:44;;;;;;;21.33;4.72;;;10.20;99.90;;;;;;7372773;19;20801;-59
2023/01/05 04:42:12;;;;;;;28.38;5.85;;;10.20;99.90;;;;;;7374151;19;20034;-59
2023/01/05 04:44:40;;;;;;;21.95;4.68;;;10.30;99.90;;;;;;7374985;19;20588;-59
2023/01/05 04:47:09;;;;;;;25.67;5.93;;;10.30;99.90;;;;;;7372739;19;20094;-59
2023/01/05 04:49:39;;;;;;;24.13;5.00;;;10.30;99.90;;;;;;7373834;19;20025;-59
2023/01/05 04:52:08;;;;;;;25.98;5.15;;;10.20;99.90;;;;;;7370935;19;20060;-59
2023/01/05 04:54:35;;;;;;;26.55;5.25;;;10.30;99.90;;;;;;7372195;19;20591;-59
2023/01/05 04:57:04;;;;;;;23.77;5.22;;;10.30;99.90;;;;;;7365989;19;20039;-58
2023/01/05 04:59:31;;;;;;;23.77;4.90;;;10.30;99.90;;;;;;7372190;19;20026;-59
2023/01/05 05:02:01;;;;;;;23.10;5.10;;;10.30;99.90;;;;;;7373862;19;20018;-59
2023/01/05 05:04:31;;;;;;;35.20;5.95;;;10.30;99.90;;;;;;7380013;19;20041;-57
2023/01/05 05:07:05;;;;;;;20.02;4.18;;;10.20;99.90;;;;;;7375701;19;20089;-59
2023/01/05 05:09:33;;;;;;;27.90;6.43;;;10.20;99.90;;;;;;7373692;19;20041;-59
2023/01/05 05:12:04;;;;;;;29.80;5.85;;;10.20;99.90;;;;;;7372429;19;20015;-59
2023/01/05 05:14:34;;;;;;;28.23;5.38;;;10.30;99.90;;;;;;7371989;19;20082;-59
2023/01/05 05:17:01;;;;;;;25.27;5.60;;;10.30;99.90;;;;;;7369898;19;20588;-59
2023/01/05 05:19:31;;;;;;;24.23;5.88;;;10.20;99.90;;;;;;7370069;19;20048;-59
2023/01/05 05:21:58;;;;;;;24.00;4.63;;;10.30;99.90;;;;;;7369563;19;20022;-59
2023/01/05 05:24:26;;;;;;;27.05;5.13;;;10.20;99.90;;;;;;7379818;19;20373;-57
2023/01/05 05:26:58;;;;;;;26.88;4.90;;;10.20;99.90;;;;;;7378263;19;20019;-57
2023/01/05 05:29:26;;;;;;;22.55;4.72;;;10.30;99.90;;;;;;7371102;19;20044;-57
2023/01/05 05:31:52;;;;;;;24.15;5.85;;;10.30;99.90;;;;;;7379851;19;20098;-57
2023/01/05 05:34:19;;;;;;;26.27;5.70;;;10.30;99.90;;;;;;7375663;19;20018;-59
2023/01/05 05:36:46;;;;;;;27.05;5.60;;;10.30;99.90;;;;;;7370701;19;20034;-59
2023/01/05 05:39:14;;;;;;;23.08;5.95;;;10.20;99.90;;;;;;7375065;19;20015;-59
2023/01/05 05:41:41;;;;;;;27.50;6.13;;;10.20;99.90;;;;;;7370609;19;20014;-59
2023/01/05 05:44:08;;;;;;;20.38;4.78;;;10.20;99.90;;;;;;7369379;19;20506;-59
2023/01/05 05:46:34;;;;;;;32.63;5.82;;;10.30;99.90;;;;;;7373875;19;20512;-59
2023/01/05 05:49:00;;;;;;;25.38;5.25;;;10.30;99.90;;;;;;7374740;19;20010;-59
2023/01/05 05:51:27;;;;;;;23.33;5.18;;;10.30;99.90;;;;;;7370555;19;20376;-59
2023/01/05 05:53:53;;;;;;;23.50;4.30;;;10.20;99.90;;;;;;7371020;19;20623;-59
2023/01/05 05:56:20;;;;;;;28.02;6.03;;;10.20;99.90;;;;;;7371416;19;20015;-59
2023/01/05 05:58:47;;;;;;;21.55;5.20;;;10.20;99.90;;;;;;7371049;19;20014;-58
2023/01/05 06:01:13;;;;;;;22.35;4.60;;;10.20;99.90;;;;;;7372355;19;20018;-56
2023/01/05 06:03:40;;;;;;;20.50;3.95;;;10.20;99.90;;;;;;7374642;19;20383;-57
2023/01/05 06:06:06;;;;;;;22.45;4.85;;;10.30;99.90;;;;;;7377468;19;20400;-57
2023/01/05 06:08:33;;;;;;;22.10;5.00;;;10.20;99.90;;;;;;7379486;19;20018;-57
2023/01/05 06:10:59;;;;;;;29.88;6.43;;;10.20;99.90;;;;;;7378609;19;20504;-57
2023/01/05 06:13:37;;;;;;;23.17;5.57;;;10.20;99.90;;;;;;7379044;19;20042;-57
2023/01/05 06:16:04;;;;;;;24.15;4.10;;;10.20;99.90;;;;;;7377743;19;20019;-58
2023/01/05 06:18:30;;;;;;;26.55;6.05;;;10.30;99.90;;;;;;7376018;19;20022;-57
2023/01/05 06:20:56;;;;;;;24.27;5.40;;;10.30;99.90;;;;;;7376165;19;20013;-57
2023/01/05 06:23:23;;;;;;;23.15;5.25;;;10.30;99.90;;;;;;7375732;19;20094;-57
2023/01/05 06:25:49;;;;;;;27.95;5.15;;;10.20;99.90;;;;;;7377812;19;20019;-57
2023/01/05 06:28:16;;;;;;;27.02;4.50;;;10.20;99.90;;;;;;7373383;19;20018;-59
2023/01/05 06:30:42;;;;;;;18.52;4.57;;;10.20;99.90;;;;;;7371303;19;20015;-59
2023/01/05 06:33:09;;;;;;;25.63;5.55;;;10.20;99.90;;;;;;7370849;19;20015;-59
2023/01/05 06:35:35;;;;;;;33.92;5.00;;;10.20;99.90;;;;;;7369422;19;20019;-59
2023/01/05 06:38:03;;;;;;;27.60;6.80;;;10.20;99.90;;;;;;7370415;19;20422;-59
2023/01/05 06:40:30;;;;;;;28.92;5.35;;;10.20;99.90;;;;;;7367237;19;20089;-61
2023/01/05 06:42:56;;;;;;;23.50;5.30;;;10.20;99.90;;;;;;7368219;19;20026;-59
2023/01/05 06:45:23;;;;;;;28.05;5.63;;;10.20;99.90;;;;;;7370474;19;20082;-60
2023/01/05 06:47:49;;;;;;;24.40;4.82;;;10.20;99.90;;;;;;7373265;19;20053;-59
2023/01/05 06:50:15;;;;;;;28.42;5.75;;;10.20;99.90;;;;;;7368859;19;20021;-59
2023/01/05 06:52:42;;;;;;;26.45;6.57;;;10.20;99.90;;;;;;7371330;19;20078;-58
2023/01/05 06:55:10;;;;;;;23.65;5.80;;;10.10;99.90;;;;;;7372626;19;20453;-59
2023/01/05 06:57:37;;;;;;;23.25;4.85;;;10.10;99.90;;;;;;7364445;19;20875;-59
2023/01/05 07:00:10;;;;;;;26.60;5.53;;;10.10;99.90;;;;;;7367937;19;20249;-59
2023/01/05 07:02:37;;;;;;;21.77;5.80;;;10.10;99.90;;;;;;7372285;19;20014;-58
2023/01/05 07:05:03;;;;;;;22.67;5.05;;;10.10;99.90;;;;;;7375925;19;20018;-58
2023/01/05 07:07:30;;;;;;;21.52;4.80;;;10.10;99.90;;;;;;7369470;19;20014;-57
2023/01/05 07:09:56;;;;;;;31.08;5.43;;;10.10;99.90;;;;;;7376679;19;20025;-57
2023/01/05 07:12:22;;;;;;;20.20;5.03;;;10.10;99.90;;;;;;7370785;19;20026;-57
2023/01/05 07:14:49;;;;;;;20.92;4.82;;;10.10;99.90;;;;;;7375503;19;20394;-58
2023/01/05 07:17:15;;;;;;;24.27;5.20;;;10.10;99.90;;;;;;7380852;19;20018;-57
2023/01/05 07:19:42;;;;;;;21.35;4.47;;;10.10;99.90;;;;;;7385787;19;20019;-57
2023/01/05 07:22:09;;;;;;;32.03;13.85;;;10.10;99.90;;;;;;7384640;19;20018;-57
2023/01/05 07:24:35;;;;;;;27.15;6.85;;;10.10;99.90;;;;;;7383632;19;20011;-57
2023/01/05 07:27:02;;;;;;;29.27;5.90;;;10.10;99.90;;;;;;7385756;19;20366;-57
2023/01/05 07:29:29;;;;;;;24.77;5.70;;;10.10;99.90;;;;;;7382551;19;20039;-57
2023/01/05 07:32:03;;;;;;;26.70;5.20;;;10.10;99.90;;;;;;7380805;19;20022;-57
2023/01/05 07:34:30;;;;;;;29.08;6.13;;;10.00;99.90;;;;;;7382070;19;20043;-58
2023/01/05 07:36:57;;;;;;;26.00;5.22;;;10.00;99.90;;;;;;7381545;19;20026;-58
2023/01/05 07:39:44;;;;;;;22.35;5.22;;;10.00;99.90;;;;;;7383618;19;20022;-58
2023/01/05 07:42:33;;;;;;;28.13;5.13;;;10.00;99.90;;;;;;7379473;19;20026;-57
2023/01/05 07:45:20;;;;;;;27.92;7.35;;;10.00;99.90;;;;;;7385442;19;20018;-57
2023/01/05 07:48:06;;;;;;;32.85;8.45;;;10.00;99.90;;;;;;7383897;19;20037;-57
2023/01/05 07:51:00;;;;;;;26.85;6.20;;;10.00;99.90;;;;;;7383804;19;20086;-57
2023/01/05 07:53:46;;;;;;;26.73;5.45;;;10.00;99.90;;;;;;7380105;19;20355;-57
2023/01/05 07:56:32;;;;;;;23.85;4.85;;;10.00;99.90;;;;;;7381375;19;20014;-57
2023/01/05 07:59:03;;;;;;;30.67;5.80;;;9.90;99.90;;;;;;7381101;19;20014;-57
2023/01/05 08:01:32;;;;;;;24.60;7.32;;;9.90;99.90;;;;;;7384179;19;20014;-57
2023/01/05 08:03:58;;;;;;;22.15;6.07;;;9.90;99.90;;;;;;7383360;19;20027;-57
2023/01/05 08:06:24;;;;;;;30.65;6.22;;;9.90;99.90;;;;;;7378885;19;20489;-59
2023/01/05 08:08:51;;;;;;;28.23;6.07;;;9.90;99.90;;;;;;7382138;19;20052;-57
2023/01/05 08:11:20;;;;;;;24.48;5.95;;;9.90;99.90;;;;;;7375106;19;20041;-59
2023/01/05 08:13:58;;;;;;;27.77;7.07;;;9.80;99.90;;;;;;7374574;19;20022;-60
2023/01/05 08:16:26;;;;;;;18.77;5.28;;;9.90;99.90;;;;;;7375815;19;20022;-57
2023/01/05 08:18:53;;;;;;;25.52;6.03;;;9.90;99.90;;;;;;7379625;19;20663;-59
2023/01/05 08:21:19;;;;;;;30.00;5.03;;;9.90;99.90;;;;;;7372024;19;20377;-59
2023/01/05 08:23:46;;;;;;;31.73;6.25;;;9.90;99.90;;;;;;7372502;19;20739;-60
2023/01/05 08:26:15;;;;;;;21.35;5.28;;;9.90;99.90;;;;;;7370713;19;20401;-59
2023/01/05 08:28:42;;;;;;;26.98;5.05;;;9.90;99.90;;;;;;7371505;19;20017;-59
2023/01/05 08:31:29;;;;;;;26.77;5.43;;;9.90;99.90;;;;;;7371060;19;20456;-59
2023/01/05 08:34:01;;;;;;;21.63;5.47;;;9.90;99.90;;;;;;7369405;19;20019;-59
2023/01/05 08:36:27;;;;;;;;;;;10.00;99.90;;;;;;7371409;19;20011;-59
2023/01/05 08:38:54;;;;;;;28.92;5.80;;;9.90;99.90;;;;;;7370187;19;20282;-59
2023/01/05 08:41:24;;;;;;;29.65;6.18;;;10.00;99.90;;;;;;7368908;19;20479;-59
2023/01/05 08:43:55;;;;;;;26.15;6.47;;;10.00;99.90;;;;;;7370033;19;20018;-59
2023/01/05 08:46:24;;;;;;;27.00;8.13;;;10.00;99.90;;;;;;7370588;19;20379;-59
2023/01/05 08:48:53;;;;;;;30.98;5.75;;;10.00;99.90;;;;;;7371941;19;20015;-59
2023/01/05 08:51:19;;;;;;;22.95;5.88;;;10.00;99.90;;;;;;7368301;19;20026;-59
2023/01/05 08:53:46;;;;;;;22.05;5.82;;;10.00;99.90;;;;;;7370545;19;20759;-59
2023/01/05 08:56:13;;;;;;;25.92;5.03;;;10.10;99.90;;;;;;7372635;19;20050;-59
2023/01/05 08:58:41;;;;;;;25.10;6.45;;;10.10;99.90;;;;;;7370209;19;20021;-59
2023/01/05 09:01:09;;;;;;;31.02;6.72;;;10.10;99.90;;;;;;7368274;19;20019;-59
2023/01/05 09:03:37;;;;;;;27.35;5.50;;;10.10;99.90;;;;;;7370691;19;20055;-59
2023/01/05 09:06:05;;;;;;;23.35;6.47;;;10.10;99.90;;;;;;7369068;19;20023;-59
2023/01/05 09:08:33;;;;;;;25.92;5.03;;;10.10;99.90;;;;;;7369284;19;20019;-59
2023/01/05 09:11:26;;;;;;;26.85;5.22;;;10.20;99.90;;;;;;7369785;19;20010;-59
2023/01/05 09:13:58;;;;;;;26.52;5.07;;;10.20;99.90;;;;;;7370379;19;20362;-59
2023/01/05 09:16:28;;;;;;;23.75;5.35;;;10.20;99.90;;;;;;7370641;19;20051;-59
2023/01/05 09:18:56;;;;;;;24.25;5.28;;;10.20;99.90;;;;;;7366962;19;20019;-59
2023/01/05 09:21:23;;;;;;;29.92;5.45;;;10.20;99.90;;;;;;7373832;19;20018;-59
2023/01/05 09:23:50;;;;;;;24.08;5.03;;;10.20;99.90;;;;;;7367470;19;20014;-59
2023/01/05 09:26:17;;;;;;;24.85;5.65;;;10.20;99.90;;;;;;7370308;19;20356;-59
2023/01/05 09:28:43;;;;;;;29.17;6.57;;;10.20;99.90;;;;;;7370167;19;20019;-59
2023/01/05 09:31:16;;;;;;;26.92;5.47;;;10.20;99.90;;;;;;7365896;19;20450;-59
2023/01/05 09:33:44;;;;;;;24.80;4.97;;;10.30;99.90;;;;;;7370843;19;20026;-59
2023/01/05 09:36:12;;;;;;;22.83;5.80;;;10.30;99.90;;;;;;7367992;19;20018;-59
2023/01/05 09:38:39;;;;;;;28.45;6.47;;;10.30;99.90;;;;;;7369151;19;20014;-59
2023/01/05 09:41:22;;;;;;;23.45;5.93;;;10.30;99.90;;;;;;7366649;19;20460;-59
2023/01/05 09:43:55;;;;;;;21.40;5.15;;;10.30;99.90;;;;;;7371797;19;20377;-59
2023/01/05 09:46:27;;;;;;;25.70;4.45;;;10.30;99.90;;;;;;7368812;19;20014;-59
2023/01/05 09:48:58;;;;;;;20.02;5.75;;;10.40;99.90;;;;;;7368825;19;20427;-60
2023/01/05 09:51:25;;;;;;;25.25;5.85;;;10.40;99.90;;;;;;7369412;19;20370;-59
2023/01/05 09:53:52;;;;;;;22.25;4.47;;;10.40;99.90;;;;;;7366483;19;20373;-60
2023/01/05 09:56:30;;;;;;;21.55;4.80;;;10.40;99.90;;;;;;7366804;19;20042;-59
2023/01/05 09:59:03;;;;;;;21.33;4.40;;;10.40;99.90;;;;;;7365926;19;20022;-59
2023/01/05 10:01:32;;;;;;;24.95;5.60;;;10.40;99.90;;;;;;7372168;19;20011;-59
2023/01/05 10:04:04;;;;;;;22.65;5.50;;;10.40;99.90;;;;;;7367109;19;20010;-59
2023/01/05 10:06:42;;;;;;;22.20;5.55;;;10.50;99.90;;;;;;7369047;19;20545;-59
2023/01/05 10:09:15;;;;;;;28.65;5.70;;;10.50;99.90;;;;;;7370341;19;20524;-59
2023/01/05 10:15:12;;;;;;;19.30;5.07;;;10.50;99.90;;;;;;7369924;19;20037;-59
2023/01/05 10:17:40;;;;;;;22.52;5.65;;;10.40;99.90;;;;;;7362378;19;20465;-59
2023/01/05 10:20:32;;;;;;;16.02;4.53;;;10.50;99.90;;;;;;7367567;19;20504;-59
2023/01/05 10:23:25;;;;;;;27.15;5.60;;;10.40;99.90;;;;;;7361955;19;20025;-59
2023/01/05 10:26:15;;;;;;;22.10;5.15;;;10.50;99.90;;;;;;7367938;19;20018;-59
2023/01/05 10:29:04;;;;;;;24.77;5.07;;;10.50;99.90;;;;;;7367866;19;20018;-60
2023/01/05 10:31:47;;;;;;;18.98;5.15;;;10.50;99.90;;;;;;7365249;19;20400;-59
2023/01/05 10:34:21;;;;;;;20.83;4.67;;;10.50;99.90;;;;;;7367921;19;20026;-59
2023/01/05 10:36:53;;;;;;;24.60;4.80;;;10.50;99.90;;;;;;7366644;19;21023;-59
2023/01/05 10:39:40;;;;;;;22.25;4.60;;;10.40;99.90;;;;;;7363793;19;20028;-58
2023/01/05 10:42:33;;;;;;;19.90;4.93;;;10.50;99.90;;;;;;7372379;19;20048;-58
2023/01/05 10:45:02;;;;;;;17.05;4.07;;;10.40;99.90;;;;;;7369828;19;20660;-57
2023/01/05 10:47:36;;;;;;;24.13;4.65;;;10.40;99.90;;;;;;7371232;19;20066;-58
2023/01/05 10:50:17;;;;;;;25.20;5.45;;;10.40;99.90;;;;;;7377197;19;20022;-58
2023/01/05 10:52:46;;;;;;;23.13;5.57;;;10.40;99.90;;;;;;7382364;19;20036;-57
2023/01/05 10:55:16;;;;;;;21.73;4.60;;;10.50;99.90;;;;;;7382309;19;20018;-57
2023/01/05 10:57:43;;;;;;;17.13;4.22;;;10.40;99.90;;;;;;7378881;19;20034;-57
2023/01/05 11:00:21;;;;;;;24.88;5.82;;;10.50;99.90;;;;;;7384666;19;20019;-58
2023/01/05 11:03:02;;;;;;;22.60;4.63;;;10.50;99.90;;;;;;7383487;19;20014;-57
2023/01/05 11:05:38;;;;;;;17.60;3.95;;;10.50;99.90;;;;;;7380305;19;20075;-59
2023/01/05 11:08:16;;;;;;;15.98;3.72;;;10.60;99.90;;;;;;7375013;19;20521;-59
2023/01/05 11:11:04;;;;;;;18.80;4.20;;;10.60;99.90;;;;;;7374156;19;20673;-59
2023/01/05 11:13:39;;;;;;;13.38;3.28;;;10.70;99.90;;;;;;7373068;19;21003;-59
2023/01/05 11:16:05;;;;;;;14.77;4.38;;;10.70;99.90;;;;;;7375719;19;20019;-59
2023/01/05 11:18:35;;;;;;;15.38;3.67;;;10.70;99.90;;;;;;7377095;19;20014;-59
2023/01/05 11:21:14;;;;;;;16.25;4.40;;;10.70;99.90;;;;;;7371676;19;20031;-59
2023/01/05 11:23:55;;;;;;;17.80;3.95;;;10.70;99.90;;;;;;7369607;19;20024;-59
2023/01/05 11:26:34;;;;;;;20.35;4.05;;;10.70;99.90;;;;;;7373322;19;20363;-59
2023/01/05 11:29:19;;;;;;;22.92;5.90;;;10.70;99.90;;;;;;7372767;19;20022;-59
2023/01/05 11:31:50;;;;;;;18.15;3.58;;;10.70;99.90;;;;;;7370903;19;20376;-59
2023/01/05 11:34:32;;;;;;;22.70;6.27;;;10.70;99.90;;;;;;7372021;19;20019;-59
2023/01/05 11:37:07;;;;;;;19.27;4.28;;;10.70;99.90;;;;;;7369365;19;20355;-59
2023/01/05 11:39:40;;;;;;;19.58;5.00;;;10.90;99.90;;;;;;7370732;19;20436;-59
2023/01/05 11:42:18;;;;;;;22.27;4.93;;;11.00;99.90;;;;;;7355654;19;20022;-59
2023/01/05 11:44:50;;;;;;;20.40;4.57;;;11.20;99.90;;;;;;7365763;19;20018;-58
2023/01/05 11:47:37;;;;;;;20.08;4.85;;;11.20;99.90;;;;;;7369970;19;20018;-59
2023/01/05 11:50:12;;;;;;;20.13;3.65;;;11.10;99.90;;;;;;7371859;19;20464;-59
2023/01/05 11:52:42;;;;;;;19.23;5.78;;;11.00;99.90;;;;;;7370119;19;20823;-59
2023/01/05 11:55:37;;;;;;;16.52;4.20;;;11.00;99.90;;;;;;7369785;19;20606;-59
2023/01/05 11:58:30;;;;;;;16.75;3.95;;;11.00;99.90;;;;;;7367897;19;20014;-59
2023/01/05 12:00:59;;;;;;;15.02;3.40;;;11.00;99.90;;;;;;7369697;19;20456;-59
2023/01/05 12:03:46;;;;;;;15.15;4.00;;;11.00;99.90;;;;;;7378714;19;20031;-59
2023/01/05 12:06:19;;;;;;;24.45;4.68;;;11.00;99.90;;;;;;7371694;19;20691;-59
2023/01/05 12:09:01;;;;;;;24.52;5.10;;;11.00;99.90;;;;;;7371015;19;20022;-59
2023/01/05 12:11:46;;;;;;;16.73;4.20;;;11.00;99.90;;;;;;7371231;19;20030;-59
2023/01/05 12:14:23;;;;;;;18.30;4.20;;;11.00;99.90;;;;;;7366987;19;20030;-59
2023/01/05 12:16:55;;;;;;;16.25;4.13;;;11.00;99.90;;;;;;7368003;19;20011;-59
2023/01/05 12:19:46;;;;;;;17.45;5.07;;;10.90;99.90;;;;;;7371545;19;20045;-57
2023/01/05 12:22:40;;;;;;;22.10;4.57;;;10.90;99.90;;;;;;7385089;19;20113;-57
2023/01/05 12:25:34;;;;;;;16.67;4.35;;;10.90;99.90;;;;;;7377447;19;20019;-59
2023/01/05 12:28:17;;;;;;;21.30;5.30;;;10.80;99.90;;;;;;7370648;19;20033;-59
2023/01/05 12:31:14;;;;;;;17.40;4.65;;;10.80;99.90;;;;;;7366645;19;20025;-59
2023/01/05 12:33:53;;;;;;;14.30;3.92;;;10.80;99.90;;;;;;7375007;19;20082;-57
2023/01/05 12:36:51;;;;;;;21.30;4.80;;;10.70;99.90;;;;;;7379448;19;20010;-59
2023/01/05 12:39:36;;;;;;;18.77;4.53;;;10.70;99.90;;;;;;7374656;19;20470;-57
2023/01/05 12:42:17;;;;;;;16.40;4.32;;;10.70;99.90;;;;;;7375004;19;20019;-60
2023/01/05 12:45:18;;;;;;;18.20;5.32;;;10.70;99.90;;;;;;7381459;19;20018;-57
2023/01/05 12:48:07;;;;;;;16.98;4.07;;;10.60;99.90;;;;;;7381884;19;20015;-58
2023/01/05 12:50:36;;;;;;;17.50;4.68;;;10.60;99.90;;;;;;7367133;19;20019;-59
2023/01/05 12:53:35;;;;;;;25.73;4.82;;;10.50;99.90;;;;;;7368869;19;20018;-59
2023/01/05 12:56:08;;;;;;;29.02;5.10;;;10.50;99.90;;;;;;7378118;19;20029;-57
2023/01/05 12:58:43;;;;;;;22.80;4.70;;;10.50;99.90;;;;;;7380096;19;20020;-57
2023/01/05 13:01:21;;;;;;;19.50;4.60;;;10.50;99.90;;;;;;7377073;19;20361;-59
2023/01/05 13:03:54;;;;;;;18.20;5.38;;;10.50;99.90;;;;;;7370638;19;20015;-58
2023/01/05 13:06:23;;;;;;;18.70;5.03;;;10.50;99.90;;;;;;7375663;19;20037;-57
2023/01/05 13:08:56;;;;;;;23.27;5.40;;;10.50;99.90;;;;;;7383443;19;20038;-57
2023/01/05 13:11:37;;;;;;;24.42;7.10;;;10.60;99.90;;;;;;7384173;19;20037;-60
2023/01/05 13:14:09;;;;;;;28.67;5.97;;;10.60;99.90;;;;;;7381263;19;20018;-57
2023/01/05 13:16:40;;;;;;;24.75;8.00;;;10.60;99.90;;;;;;7382523;19;20138;-57
2023/01/05 13:19:29;;;;;;;30.55;8.07;;;10.70;99.90;;;;;;7384512;19;20010;-57
2023/01/05 13:21:59;;;;;;;18.88;4.80;;;10.70;99.90;;;;;;7381472;19;20348;-57
2023/01/05 13:25:05;;;;;;;22.75;5.20;;;10.70;99.90;;;;;;7383157;19;20019;-57
2023/01/05 13:27:32;;;;;;;22.13;5.50;;;10.70;99.90;;;;;;7380172;19;20022;-57
2023/01/05 13:30:00;;;;;;;22.30;4.80;;;10.70;99.90;;;;;;7382327;19;20343;-57
2023/01/05 13:32:36;;;;;;;28.33;7.05;;;10.70;99.90;;;;;;7370783;19;20053;-59
2023/01/05 13:35:44;;;;;;;24.42;6.40;;;10.70;99.90;;;;;;7367392;19;20026;-59
2023/01/05 13:38:51;;;;;;;24.73;6.07;;;10.70;99.90;;;;;;7359786;19;20038;-58
2023/01/05 13:41:40;;;;;;;25.88;5.85;;;10.60;99.90;;;;;;7367636;19;20026;-59